Terminal Aerodrome Forecast
Issued by NWS Bismarck, ND

Home | Current Version | Previous Version | Text Only | Print | Product List | Glossary On
Versions: 1 2 3 4 5 6 7 8 9 10 11 12 13 14 15 16 17 18 19 20 21
000
FTUS43 KBIS 070534
TAFISN
TAF
KISN 070534Z 0706/0806 09005KT 4SM FU SKC
     FM071500 19008KT 6SM FU SCT050
     FM071900 23008KT P6SM SCT060
     FM080300 VRB05KT P6SM BKN070=

USA.gov is the U.S. government's official web portal to all federal, state and local government web resources and services.